createdAt,value
2024-04-08T00:01:47.050Z,13.31
2024-04-08T00:04:33.349Z,13.32
2024-04-08T00:07:20.364Z,13.32
2024-04-08T00:10:08.077Z,13.31
2024-04-08T00:12:54.503Z,13.30
2024-04-08T00:15:40.462Z,13.30
2024-04-08T00:18:26.561Z,13.30
2024-04-08T00:21:12.895Z,13.31
2024-04-08T00:23:58.815Z,13.32
2024-04-08T00:31:24.879Z,13.68
2024-04-08T00:34:11.045Z,14.04
2024-04-08T00:36:57.563Z,14.31
2024-04-08T00:39:43.993Z,14.45
2024-04-08T00:42:30.235Z,14.61
2024-04-08T00:45:16.555Z,14.87
2024-04-08T00:48:06.429Z,15.23
2024-04-08T00:50:54.712Z,15.58
2024-04-08T00:53:42.509Z,15.77
2024-04-08T00:56:29.302Z,15.81
2024-04-08T00:59:15.779Z,15.79
2024-04-08T01:02:06.942Z,15.77
2024-04-08T01:04:53.862Z,15.73
2024-04-08T01:07:45.009Z,15.70
2024-04-08T01:10:31.886Z,15.70
2024-04-08T01:13:18.383Z,15.81
2024-04-08T01:16:06.540Z,15.99
2024-04-08T01:18:52.732Z,16.04
2024-04-08T01:21:40.131Z,16.02
2024-04-08T01:24:27.765Z,15.96
2024-04-08T01:27:16.082Z,15.91
2024-04-08T01:30:03.143Z,15.87
2024-04-08T01:32:50.058Z,15.82
2024-04-08T01:35:37.194Z,15.71
2024-04-08T01:38:23.903Z,15.59
2024-04-08T01:41:10.291Z,15.48
2024-04-08T01:43:56.548Z,15.37
2024-04-08T01:46:42.936Z,15.25
2024-04-08T01:49:31.177Z,15.13
2024-04-08T01:52:17.356Z,15.03
2024-04-08T01:55:04.417Z,14.92
2024-04-08T01:57:51.545Z,14.82
2024-04-08T02:00:37.902Z,14.71
2024-04-08T02:03:24.043Z,14.61
2024-04-08T02:06:10.183Z,14.53
2024-04-08T02:08:58.219Z,14.46
2024-04-08T02:11:44.569Z,14.42
2024-04-08T02:14:31.314Z,14.37
2024-04-08T02:17:17.817Z,14.32
2024-04-08T02:20:05.278Z,14.28
2024-04-08T02:22:51.369Z,14.27
2024-04-08T02:29:52.623Z,14.28
2024-04-08T02:32:39.228Z,14.27
2024-04-08T02:35:26.958Z,14.27
2024-04-08T02:38:38.802Z,14.23
2024-04-08T02:41:28.377Z,14.16
2024-04-08T02:44:16.207Z,14.10
2024-04-08T02:47:02.613Z,14.03
2024-04-08T02:49:50.239Z,13.96
2024-04-08T02:52:36.378Z,13.90
2024-04-08T02:55:23.651Z,13.89
2024-04-08T02:59:00.883Z,13.87
2024-04-08T03:01:49.547Z,13.81
2024-04-08T03:04:37.130Z,13.74
2024-04-08T03:07:23.511Z,13.68
2024-04-08T03:10:12.023Z,13.63
2024-04-08T03:12:58.549Z,13.54
2024-04-08T03:15:54.896Z,13.45
2024-04-08T03:18:41.710Z,13.35
2024-04-08T03:21:27.898Z,13.24
2024-04-08T03:24:16.436Z,13.16
2024-04-08T03:27:28.879Z,13.09
2024-04-08T03:30:14.916Z,13.08
2024-04-08T03:33:01.455Z,13.09
2024-04-08T03:35:49.604Z,13.07
2024-04-08T03:38:36.019Z,13.07
2024-04-08T03:41:22.506Z,13.08
2024-04-08T03:44:09.044Z,13.08
2024-04-08T03:46:55.285Z,13.06
2024-04-08T03:49:42.008Z,13.06
2024-04-08T03:52:28.414Z,13.06
2024-04-08T03:55:14.805Z,13.07
2024-04-08T03:58:01.126Z,13.11
2024-04-08T04:00:47.645Z,13.16
2024-04-08T04:03:36.495Z,13.16
2024-04-08T04:06:22.669Z,13.14
2024-04-08T04:09:12.550Z,13.12
2024-04-08T04:11:59.032Z,13.13
2024-04-08T04:23:58.732Z,13.08
2024-04-08T04:26:44.956Z,13.05
2024-04-08T04:29:31.546Z,13.05
2024-04-08T04:32:20.469Z,13.10
2024-04-08T04:35:06.771Z,13.13
2024-04-08T04:37:53.640Z,13.15
2024-04-08T04:40:39.990Z,13.16
2024-04-08T04:43:27.147Z,13.19
2024-04-08T04:46:13.311Z,13.21
2024-04-08T04:49:28.088Z,13.23
2024-04-08T04:52:16.646Z,13.25
2024-04-08T04:55:03.048Z,13.26
2024-04-08T04:57:49.408Z,13.28
2024-04-08T05:00:38.556Z,13.29
2024-04-08T05:03:25.183Z,13.35
2024-04-08T05:06:11.544Z,13.42
2024-04-08T05:09:01.691Z,13.50
2024-04-08T05:11:50.010Z,13.59
2024-04-08T05:14:36.116Z,13.65
2024-04-08T05:17:24.198Z,13.71
2024-04-08T05:20:11.190Z,13.82
2024-04-08T05:22:57.667Z,13.97
2024-04-08T05:25:44.286Z,14.02
2024-04-08T05:28:33.154Z,14.08
2024-04-08T05:31:19.141Z,14.11
2024-04-08T05:34:05.201Z,14.14
2024-04-08T05:36:54.502Z,14.19
2024-04-08T05:40:33.843Z,14.27
2024-04-08T05:43:21.189Z,14.44
2024-04-08T05:46:09.256Z,14.59
2024-04-08T05:48:55.364Z,14.69
2024-04-08T05:51:42.114Z,14.77
2024-04-08T05:54:28.097Z,14.92
2024-04-08T05:57:14.389Z,15.11
2024-04-08T06:04:49.867Z,15.66
2024-04-08T06:07:38.319Z,15.99
2024-04-08T06:10:32.984Z,16.33
2024-04-08T06:13:19.438Z,16.81
2024-04-08T06:16:05.837Z,17.46
2024-04-08T06:18:52.214Z,18.12
2024-04-08T06:21:38.915Z,18.79
2024-04-08T06:24:26.013Z,19.45
2024-04-08T06:27:14.758Z,20.02
2024-04-08T06:30:01.444Z,20.35
2024-04-08T06:32:52.353Z,20.56
2024-04-08T06:35:58.564Z,20.77
2024-04-08T06:38:45.420Z,20.99
2024-04-08T06:41:35.650Z,21.21
2024-04-08T06:44:21.700Z,21.36
2024-04-08T06:47:09.210Z,21.49
2024-04-08T06:49:55.545Z,21.55
2024-04-08T06:52:41.639Z,21.49
2024-04-08T06:55:27.987Z,21.56
2024-04-08T06:58:20.502Z,21.74
2024-04-08T07:01:07.149Z,22.08
2024-04-08T07:03:55.064Z,22.38
2024-04-08T07:06:41.313Z,22.61
2024-04-08T07:09:31.237Z,22.84
2024-04-08T07:12:17.351Z,23.10
2024-04-08T07:15:03.939Z,23.19
2024-04-08T07:17:51.776Z,23.31
2024-04-08T07:20:39.831Z,23.49
2024-04-08T07:23:26.173Z,23.69
2024-04-08T07:26:12.591Z,23.88
2024-04-08T07:28:58.643Z,24.07
2024-04-08T07:31:45.071Z,24.22
2024-04-08T07:34:32.119Z,24.28
2024-04-08T07:37:18.362Z,24.23
2024-04-08T07:40:07.087Z,24.12
2024-04-08T07:42:53.880Z,24.08
2024-04-08T07:45:45.343Z,24.19
2024-04-08T07:48:33.153Z,24.41
2024-04-08T07:51:19.597Z,24.67
2024-04-08T07:54:08.430Z,24.86
2024-04-08T07:56:59.834Z,24.95
2024-04-08T07:59:46.101Z,25.08
2024-04-08T08:02:36.663Z,25.26
2024-04-08T08:05:23.123Z,25.39
2024-04-08T08:08:10.852Z,25.50
2024-04-08T08:11:04.613Z,25.63
2024-04-08T08:13:50.972Z,25.85
2024-04-08T08:16:37.262Z,26.01
2024-04-08T08:19:23.415Z,26.20
2024-04-08T08:22:12.552Z,26.33
2024-04-08T08:24:58.967Z,26.34
2024-04-08T08:27:46.989Z,26.30
2024-04-08T08:30:39.172Z,26.29
2024-04-08T08:33:25.581Z,26.18
2024-04-08T08:36:11.726Z,26.07
2024-04-08T08:38:58.961Z,26.10
2024-04-08T08:41:55.147Z,25.97
2024-04-08T08:44:48.371Z,25.87
2024-04-08T08:47:37.052Z,25.75
2024-04-08T08:50:27.325Z,25.61
2024-04-08T08:53:13.660Z,25.54
2024-04-08T08:56:05.106Z,25.66
2024-04-08T08:59:43.167Z,25.83
2024-04-08T09:02:34.866Z,26.08
2024-04-08T09:05:21.196Z,26.41
2024-04-08T09:08:08.886Z,26.60
2024-04-08T09:10:54.957Z,26.69
2024-04-08T09:13:41.651Z,26.74
2024-04-08T09:16:27.831Z,26.87
2024-04-08T09:19:19.390Z,27.08
2024-04-08T09:22:07.663Z,27.09
2024-04-08T09:24:54.111Z,26.99
2024-04-08T09:27:48.033Z,26.88
2024-04-08T09:30:35.569Z,26.80
2024-04-08T09:33:24.016Z,26.67
2024-04-08T09:36:11.098Z,26.59
2024-04-08T09:39:02.576Z,26.55
2024-04-08T09:41:58.382Z,26.43
2024-04-08T09:44:46.273Z,26.25
2024-04-08T09:47:34.548Z,26.08
2024-04-08T09:50:26.823Z,25.95
2024-04-08T09:53:13.013Z,25.82
2024-04-08T09:56:10.083Z,25.74
2024-04-08T09:59:22.706Z,25.65
2024-04-08T10:02:19.385Z,25.59
2024-04-08T10:05:08.185Z,25.63
2024-04-08T10:07:55.543Z,25.71
2024-04-08T10:10:42.902Z,25.84
2024-04-08T10:13:29.086Z,25.97
2024-04-08T10:16:15.943Z,26.02
2024-04-08T10:19:07.077Z,26.02
2024-04-08T10:22:03.798Z,26.06
2024-04-08T10:24:57.480Z,26.13
2024-04-08T10:27:44.829Z,26.26
2024-04-08T10:30:34.991Z,26.40
2024-04-08T10:33:25.543Z,26.52
2024-04-08T10:36:12.637Z,26.62
2024-04-08T10:38:59.332Z,26.65
2024-04-08T10:41:45.406Z,26.70
2024-04-08T10:44:32.723Z,26.79
2024-04-08T10:47:19.018Z,26.88
2024-04-08T10:50:10.990Z,26.98
2024-04-08T10:53:00.377Z,27.01
2024-04-08T10:55:46.594Z,27.00
2024-04-08T10:58:33.312Z,26.97
2024-04-08T11:01:20.306Z,26.99
2024-04-08T11:04:06.412Z,27.05
2024-04-08T11:06:52.727Z,27.15
2024-04-08T11:09:39.469Z,27.21
2024-04-08T11:12:26.153Z,27.17
2024-04-08T11:15:17.690Z,27.08
2024-04-08T11:18:04.369Z,27.00
2024-04-08T11:20:51.068Z,26.98
2024-04-08T11:23:46.696Z,26.93
2024-04-08T11:26:38.752Z,26.91
2024-04-08T11:29:28.456Z,26.88
2024-04-08T11:32:15.122Z,26.90
2024-04-08T11:35:01.561Z,26.95
2024-04-08T11:37:48.156Z,26.97
2024-04-08T11:40:34.516Z,26.99
2024-04-08T11:43:20.591Z,26.99
2024-04-08T11:46:07.438Z,26.98
2024-04-08T11:48:54.103Z,27.02
2024-04-08T11:51:40.605Z,27.08
2024-04-08T11:54:26.801Z,27.12
2024-04-08T11:57:15.389Z,27.10
2024-04-08T12:00:02.395Z,27.13
2024-04-08T12:02:49.730Z,27.23
2024-04-08T12:05:35.954Z,27.25
2024-04-08T12:08:22.272Z,27.26
2024-04-08T12:11:12.027Z,27.20
2024-04-08T12:13:58.859Z,27.13
2024-04-08T12:16:45.319Z,27.09
2024-04-08T12:19:31.475Z,27.06
2024-04-08T12:22:20.912Z,27.00
2024-04-08T12:25:07.534Z,26.98
2024-04-08T12:27:54.267Z,26.98
2024-04-08T12:30:43.666Z,27.00
2024-04-08T12:33:30.772Z,26.98
2024-04-08T12:36:18.938Z,26.92
2024-04-08T12:39:06.361Z,26.91
2024-04-08T12:41:53.678Z,26.92
2024-04-08T12:44:43.579Z,26.93
2024-04-08T12:47:30.620Z,26.89
2024-04-08T12:50:16.945Z,26.86
2024-04-08T12:53:04.573Z,26.85
2024-04-08T12:55:52.590Z,26.80
2024-04-08T12:58:39.264Z,26.76
2024-04-08T13:01:26.579Z,26.77
2024-04-08T13:04:14.380Z,26.82
2024-04-08T13:07:00.627Z,26.84
2024-04-08T13:09:47.459Z,26.80
2024-04-08T13:12:34.694Z,26.77
2024-04-08T13:15:21.064Z,26.77
2024-04-08T13:18:08.995Z,26.79
2024-04-08T13:20:56.686Z,26.78
2024-04-08T13:24:08.748Z,26.77
2024-04-08T13:26:55.093Z,26.69
2024-04-08T13:29:42.750Z,26.60
2024-04-08T13:32:31.591Z,26.59
2024-04-08T13:35:24.098Z,26.61
2024-04-08T13:38:10.522Z,26.62
2024-04-08T13:40:57.198Z,26.57
2024-04-08T13:43:45.568Z,26.50
2024-04-08T13:46:32.887Z,26.45
2024-04-08T13:49:21.373Z,26.39
2024-04-08T13:52:10.484Z,26.33
2024-04-08T13:54:58.066Z,26.29
2024-04-08T13:57:47.220Z,26.31
2024-04-08T14:00:34.378Z,26.33
2024-04-08T14:03:22.549Z,26.32
2024-04-08T14:06:09.931Z,26.27
2024-04-08T14:08:56.188Z,26.24
2024-04-08T14:11:45.496Z,26.19
2024-04-08T14:14:32.344Z,26.18
2024-04-08T14:17:20.090Z,26.18
2024-04-08T14:20:08.002Z,26.23
2024-04-08T14:22:58.821Z,26.26
2024-04-08T14:25:45.925Z,26.27
2024-04-08T14:28:32.345Z,26.27
2024-04-08T14:31:18.912Z,26.28
2024-04-08T14:34:04.990Z,26.30
2024-04-08T14:36:52.759Z,26.31
2024-04-08T14:39:39.948Z,26.32
2024-04-08T14:42:26.733Z,26.32
2024-04-08T14:45:14.902Z,26.29
2024-04-08T14:48:01.327Z,26.27
2024-04-08T14:50:48.337Z,26.23
2024-04-08T14:53:35.151Z,26.18
2024-04-08T14:56:22.639Z,26.15
2024-04-08T14:59:11.146Z,26.11
2024-04-08T15:01:57.518Z,26.11
2024-04-08T15:04:43.727Z,26.12
2024-04-08T15:07:35.653Z,26.09
2024-04-08T15:10:22.250Z,26.07
2024-04-08T15:13:08.182Z,26.02
2024-04-08T15:15:56.182Z,25.97
2024-04-08T15:18:42.806Z,25.91
2024-04-08T15:21:29.118Z,25.86
2024-04-08T15:24:15.700Z,25.84
2024-04-08T15:27:03.610Z,25.81
2024-04-08T15:29:54.740Z,25.76
2024-04-08T15:32:42.241Z,25.69
2024-04-08T15:35:28.920Z,25.61
2024-04-08T15:38:15.327Z,25.53
2024-04-08T15:41:01.976Z,25.46
2024-04-08T15:43:48.296Z,25.37
2024-04-08T15:46:34.372Z,25.29
2024-04-08T15:49:20.614Z,25.23
2024-04-08T15:52:07.610Z,25.15
2024-04-08T15:54:54.149Z,25.04
2024-04-08T15:57:40.811Z,24.91
2024-04-08T16:00:29.668Z,24.80
2024-04-08T16:03:16.655Z,24.67
2024-04-08T16:06:14.627Z,24.57
2024-04-08T16:09:04.518Z,24.47
2024-04-08T16:11:51.092Z,24.36
2024-04-08T16:14:38.568Z,24.26
2024-04-08T16:17:24.609Z,24.17
2024-04-08T16:20:11.287Z,24.08
2024-04-08T16:23:27.288Z,23.97
2024-04-08T16:26:26.586Z,23.82
2024-04-08T16:29:13.434Z,23.70
2024-04-08T16:31:59.759Z,23.64
2024-04-08T16:34:46.297Z,23.56
2024-04-08T16:37:32.766Z,23.44
2024-04-08T16:40:18.930Z,23.34
2024-04-08T16:43:06.749Z,23.24
2024-04-08T16:45:57.606Z,23.15
2024-04-08T16:48:44.333Z,23.11
2024-04-08T16:51:31.093Z,23.05
2024-04-08T16:54:19.979Z,22.98
2024-04-08T16:57:06.091Z,22.87
2024-04-08T16:59:52.875Z,22.76
2024-04-08T17:02:42.165Z,22.68
2024-04-08T17:05:28.960Z,22.58
2024-04-08T17:08:15.181Z,22.52
2024-04-08T17:11:03.014Z,22.47
2024-04-08T17:13:49.672Z,22.40
2024-04-08T17:16:36.062Z,22.33
2024-04-08T17:19:22.965Z,22.24
2024-04-08T17:22:09.463Z,22.14
2024-04-08T17:24:56.040Z,22.02
2024-04-08T17:27:42.245Z,21.84
2024-04-08T17:30:28.655Z,21.65
2024-04-08T17:33:17.366Z,21.46
2024-04-08T17:36:07.781Z,21.27
2024-04-08T17:43:37.414Z,20.76
2024-04-08T17:46:24.218Z,20.56
2024-04-08T17:49:10.608Z,20.37
2024-04-08T17:51:57.323Z,20.21
2024-04-08T17:54:44.213Z,20.08
2024-04-08T17:57:31.265Z,19.97
2024-04-08T18:00:17.639Z,19.87
2024-04-08T18:03:04.817Z,19.75
2024-04-08T18:05:52.723Z,19.62
2024-04-08T18:08:43.611Z,19.48
2024-04-08T18:11:40.951Z,19.33
2024-04-08T18:14:35.582Z,19.18
2024-04-08T18:17:22.409Z,19.07
2024-04-08T18:20:09.405Z,19.01
2024-04-08T18:22:55.842Z,18.97
2024-04-08T18:25:43.234Z,18.96
2024-04-08T18:28:35.100Z,18.94
2024-04-08T18:31:21.826Z,18.90
2024-04-08T18:34:09.937Z,18.84
2024-04-08T18:36:56.239Z,18.76
2024-04-08T18:39:42.925Z,18.68
2024-04-08T18:42:30.021Z,18.58
2024-04-08T18:45:16.674Z,18.45
2024-04-08T18:48:04.011Z,18.32
2024-04-08T18:50:53.007Z,18.21
2024-04-08T18:53:40.208Z,18.11
2024-04-08T18:56:26.708Z,18.00
2024-04-08T18:59:13.204Z,17.89
2024-04-08T19:01:59.661Z,17.78
2024-04-08T19:04:46.430Z,17.71
2024-04-08T19:07:33.347Z,17.62
2024-04-08T19:10:19.805Z,17.57
2024-04-08T19:13:07.781Z,17.52
2024-04-08T19:16:01.859Z,17.51
2024-04-08T19:19:17.280Z,17.51
2024-04-08T19:22:07.281Z,17.47
2024-04-08T19:24:56.039Z,17.46
2024-04-08T19:27:44.801Z,17.49
2024-04-08T19:30:31.980Z,17.50
2024-04-08T19:33:18.497Z,17.54
2024-04-08T19:36:08.783Z,17.58
2024-04-08T19:38:55.171Z,17.59
2024-04-08T19:41:41.681Z,17.53
2024-04-08T19:44:28.255Z,17.47
2024-04-08T19:47:14.781Z,17.41
2024-04-08T19:50:02.302Z,17.40
2024-04-08T19:52:48.798Z,17.40
2024-04-08T19:55:34.873Z,17.38
2024-04-08T19:58:23.902Z,17.36
2024-04-08T20:01:12.222Z,17.34
2024-04-08T20:04:00.066Z,17.31
2024-04-08T20:06:46.633Z,17.26
2024-04-08T20:09:38.162Z,17.20
2024-04-08T20:16:57.220Z,17.03
2024-04-08T20:19:43.743Z,16.95
2024-04-08T20:22:30.266Z,16.87
2024-04-08T20:25:16.369Z,16.81
2024-04-08T20:28:02.805Z,16.75
2024-04-08T20:30:57.097Z,16.73
2024-04-08T20:33:43.301Z,16.74
2024-04-08T20:36:29.832Z,16.77
2024-04-08T20:39:16.269Z,16.74
2024-04-08T20:42:05.788Z,16.69
2024-04-08T20:44:53.000Z,16.65
2024-04-08T20:47:39.263Z,16.61
2024-04-08T20:50:25.656Z,16.60
2024-04-08T20:53:11.770Z,16.56
2024-04-08T20:56:03.234Z,16.55
2024-04-08T20:58:51.751Z,16.55
2024-04-08T21:01:38.311Z,16.55
2024-04-08T21:04:25.248Z,16.52
2024-04-08T21:07:12.141Z,16.50
2024-04-08T21:09:58.461Z,16.50
2024-04-08T21:12:50.563Z,16.49
2024-04-08T21:15:38.407Z,16.50
2024-04-08T21:18:25.651Z,16.53
2024-04-08T21:21:14.548Z,16.57
2024-04-08T21:24:01.250Z,16.62
2024-04-08T21:26:48.013Z,16.67
2024-04-08T21:30:00.357Z,16.71
2024-04-08T21:32:51.585Z,16.84
2024-04-08T21:35:39.649Z,16.95
2024-04-08T21:38:27.172Z,17.03
2024-04-08T21:41:14.108Z,17.12
2024-04-08T21:44:00.647Z,17.17
2024-04-08T21:46:49.360Z,17.25
2024-04-08T21:49:35.745Z,17.30
2024-04-08T21:52:22.446Z,17.32
2024-04-08T21:55:08.928Z,17.30
2024-04-08T21:57:55.807Z,17.24
2024-04-08T22:00:46.675Z,17.19
2024-04-08T22:03:33.672Z,17.19
2024-04-08T22:06:24.275Z,17.18
2024-04-08T22:09:42.157Z,17.16
2024-04-08T22:12:28.689Z,17.11
2024-04-08T22:15:14.977Z,17.07
2024-04-08T22:18:02.772Z,16.97
2024-04-08T22:20:49.166Z,16.82
2024-04-08T22:23:35.846Z,16.66
2024-04-08T22:26:23.470Z,16.49
2024-04-08T22:29:10.029Z,16.32
2024-04-08T22:31:56.234Z,16.20
2024-04-08T22:34:42.509Z,16.09
2024-04-08T22:37:32.291Z,15.98
2024-04-08T22:40:18.765Z,15.84
2024-04-08T22:43:04.923Z,15.71
2024-04-08T22:45:51.225Z,15.57
2024-04-08T22:48:37.482Z,15.45
2024-04-08T22:51:24.286Z,15.36
2024-04-08T22:54:10.875Z,15.25
2024-04-08T22:56:57.613Z,15.13
2024-04-08T22:59:44.228Z,15.04
2024-04-08T23:02:31.990Z,14.94
2024-04-08T23:05:21.574Z,14.85
2024-04-08T23:08:10.515Z,14.77
2024-04-08T23:10:57.495Z,14.69
2024-04-08T23:13:44.447Z,14.60
2024-04-08T23:16:30.838Z,14.51
2024-04-08T23:19:16.988Z,14.42
2024-04-08T23:22:03.769Z,14.36
2024-04-08T23:24:49.907Z,14.32
2024-04-08T23:27:36.185Z,14.31
2024-04-08T23:30:23.147Z,14.30
2024-04-08T23:33:09.790Z,14.34
2024-04-08T23:35:56.271Z,14.38
2024-04-08T23:38:43.231Z,14.40
2024-04-08T23:41:29.579Z,14.40
2024-04-08T23:44:18.236Z,14.41
2024-04-08T23:47:04.906Z,14.43
2024-04-08T23:49:54.013Z,14.42
2024-04-08T23:52:40.335Z,14.40
2024-04-08T23:55:26.347Z,14.38
2024-04-08T23:58:15.050Z,14.35
